Time;durP1;ratioP1;P1;durP2;ratioP2;P2;SDS_P1;SDS_P2;PMS_P1;PMS_P2;Temp;Humidity;BMP_temperature;BMP_pressure;BME280_temperature;BME280_humidity;BME280_pressure;Samples;Min_cycle;Max_cycle;Signal;HPM_P1;HPM_P2
2022/10/27 00:00:44;;;;;;;15.75;7.25;;;12.30;99.90;;;;;;4936806;29;20051;-88
2022/10/27 00:03:11;;;;;;;20.27;7.55;;;12.20;99.90;;;;;;4937246;29;20050;-88
2022/10/27 00:05:40;;;;;;;18.02;7.50;;;12.20;99.90;;;;;;4937371;29;20126;-88
2022/10/27 00:08:06;;;;;;;16.83;7.80;;;12.10;99.90;;;;;;4953824;29;20102;-88
2022/10/27 00:10:32;;;;;;;15.02;7.20;;;12.10;99.90;;;;;;4937361;29;20043;-88
2022/10/27 00:12:57;;;;;;;16.80;7.38;;;12.00;99.90;;;;;;4954820;29;20098;-88
2022/10/27 00:15:23;;;;;;;16.27;7.15;;;12.00;99.90;;;;;;4936724;29;20514;-88
2022/10/27 00:17:51;;;;;;;14.30;6.95;;;12.00;99.90;;;;;;4954081;28;20055;-88
2022/10/27 00:20:16;;;;;;;16.65;7.15;;;12.00;99.90;;;;;;4954286;29;20054;-88
2022/10/27 00:22:42;;;;;;;15.82;7.85;;;11.90;99.90;;;;;;4936643;29;20051;-88
2022/10/27 00:25:08;;;;;;;16.20;7.72;;;12.80;99.90;;;;;;4954697;29;20040;-88
2022/10/27 00:27:33;;;;;;;17.40;8.05;;;11.90;99.90;;;;;;4954781;29;20051;-88
2022/10/27 00:29:59;;;;;;;16.98;8.23;;;11.80;99.90;;;;;;4954136;29;20047;-88
2022/10/27 00:32:24;;;;;;;17.75;7.80;;;11.90;99.90;;;;;;4954334;29;20047;-88
2022/10/27 00:34:50;;;;;;;17.58;8.18;;;11.80;99.90;;;;;;4954752;29;20137;-88
2022/10/27 00:37:16;;;;;;;16.55;8.43;;;11.80;99.90;;;;;;4936269;29;20106;-88
2022/10/27 00:39:42;;;;;;;17.40;8.20;;;11.80;99.90;;;;;;4952000;29;20509;-88
2022/10/27 00:42:11;;;;;;;18.02;7.80;;;11.80;99.90;;;;;;4953431;29;20058;-88
2022/10/27 00:44:46;;;;;;;20.15;8.13;;;11.80;99.90;;;;;;5000151;23;20198;-88
2022/10/27 00:47:31;;;;;;;17.50;7.78;;;11.80;99.90;;;;;;4936957;29;20043;-88
2022/10/27 00:50:17;;;;;;;17.35;8.07;;;11.70;99.90;;;;;;4936486;29;20051;-88
2022/10/27 00:52:47;;;;;;;17.45;7.10;;;11.70;99.90;;;;;;4937147;29;20048;-88
2022/10/27 00:55:22;;;;;;;16.05;7.25;;;11.70;99.90;;;;;;4936867;29;20138;-88
2022/10/27 00:57:56;;;;;;;17.58;7.28;;;11.70;99.90;;;;;;4936283;29;20050;-88
2022/10/27 01:00:22;;;;;;;15.65;7.95;;;12.00;99.90;;;;;;4936960;29;20062;-88
2022/10/27 01:02:49;;;;;;;18.02;7.78;;;11.80;99.90;;;;;;4937031;29;20039;-88
2022/10/27 01:05:19;;;;;;;20.13;7.53;;;11.70;99.90;;;;;;4939499;29;20373;-88
2022/10/27 01:07:50;;;;;;;17.55;6.80;;;11.70;99.90;;;;;;4953988;29;20054;-88
2022/10/27 01:10:17;;;;;;;15.18;7.32;;;11.70;99.90;;;;;;4936087;29;20070;-87
2022/10/27 01:12:43;;;;;;;16.90;7.78;;;11.70;99.90;;;;;;4936782;29;20054;-88
2022/10/27 01:15:10;;;;;;;13.70;7.60;;;11.80;99.90;;;;;;4963443;23;20593;-87
2022/10/27 01:17:48;;;;;;;16.15;8.15;;;11.80;99.90;;;;;;4935609;29;20063;-88
2022/10/27 01:21:15;;;;;;;15.65;7.68;;;11.90;99.90;;;;;;4936629;29;20388;-88
2022/10/27 01:23:47;;;;;;;18.35;8.73;;;11.90;99.90;;;;;;4930076;29;20525;-88
2022/10/27 01:26:22;;;;;;;19.23;9.55;;;11.90;99.90;;;;;;4953095;29;20134;-88
2022/10/27 01:28:50;;;;;;;16.58;9.75;;;11.90;99.90;;;;;;4954583;28;20047;-88
2022/10/27 01:31:56;;;;;;;22.50;12.32;;;11.90;99.90;;;;;;4958197;29;20047;-88
2022/10/27 01:34:39;;;;;;;23.05;12.02;;;11.90;99.90;;;;;;4925314;29;20048;-88
2022/10/27 01:37:14;;;;;;;24.20;11.90;;;12.00;99.90;;;;;;4940991;29;20047;-88
2022/10/27 01:39:50;;;;;;;19.67;11.43;;;12.00;99.90;;;;;;4940354;29;20054;-88
2022/10/27 01:44:55;;;;;;;22.58;11.20;;;12.10;99.90;;;;;;5020646;23;20066;-88
2022/10/27 01:47:22;;;;;;;18.30;9.90;;;12.00;99.90;;;;;;4939678;29;20047;-88
2022/10/27 01:49:51;;;;;;;18.08;9.68;;;12.10;99.90;;;;;;4941066;29;20051;-88
2022/10/27 01:52:40;;;;;;;20.60;9.73;;;12.00;99.90;;;;;;4957858;29;20069;-88
2022/10/27 01:55:45;;;;;;;21.85;10.18;;;12.10;99.90;;;;;;4958264;29;20047;-88
2022/10/27 01:58:32;;;;;;;18.92;9.63;;;12.10;99.90;;;;;;4957988;29;20051;-88
2022/10/27 02:01:12;;;;;;;18.17;9.48;;;12.10;99.90;;;;;;4957147;29;20389;-88
2022/10/27 02:04:07;;;;;;;20.42;9.88;;;12.10;99.90;;;;;;4994571;23;20528;-88
2022/10/27 02:06:38;;;;;;;22.58;9.65;;;12.20;99.90;;;;;;4939232;29;20076;-88
2022/10/27 02:09:24;;;;;;;20.92;9.85;;;12.30;99.90;;;;;;4957329;29;20047;-88
2022/10/27 02:11:52;;;;;;;20.70;9.55;;;12.30;99.90;;;;;;4940437;29;20050;-88
2022/10/27 02:14:19;;;;;;;17.70;9.57;;;12.40;99.90;;;;;;4939104;29;20090;-89
2022/10/27 02:16:50;;;;;;;18.10;9.00;;;12.40;99.90;;;;;;4940426;29;20049;-88
2022/10/27 02:19:21;;;;;;;19.77;10.00;;;12.30;99.90;;;;;;4940382;29;20043;-88
2022/10/27 02:21:50;;;;;;;21.90;9.32;;;12.40;99.90;;;;;;4939542;29;20047;-88
2022/10/27 02:24:16;;;;;;;19.17;8.65;;;12.40;99.90;;;;;;4939836;29;20053;-88
2022/10/27 02:27:06;;;;;;;20.92;9.50;;;12.40;99.90;;;;;;4940691;29;20039;-88
2022/10/27 02:29:36;;;;;;;19.95;9.32;;;12.40;99.90;;;;;;4913367;29;20154;-88
2022/10/27 02:32:06;;;;;;;21.95;9.52;;;12.40;99.90;;;;;;4957779;29;20514;-88
2022/10/27 02:34:33;;;;;;;20.15;9.52;;;12.40;99.90;;;;;;4939701;29;20113;-88
2022/10/27 02:36:59;;;;;;;16.85;9.77;;;12.40;99.90;;;;;;5205049;23;20444;-88
2022/10/27 02:39:24;;;;;;;18.42;8.90;;;12.30;99.90;;;;;;4940127;29;20123;-88
2022/10/27 02:41:50;;;;;;;21.38;8.90;;;12.20;99.90;;;;;;5172024;23;20047;-87
2022/10/27 02:44:16;;;;;;;19.17;9.15;;;12.10;99.90;;;;;;4956709;29;20166;-88
2022/10/27 02:46:44;;;;;;;20.45;8.73;;;12.10;99.90;;;;;;4957034;29;20490;-87
2022/10/27 02:49:09;;;;;;;16.15;8.35;;;12.00;99.90;;;;;;4956010;29;20058;-88
2022/10/27 02:51:35;;;;;;;16.35;8.57;;;12.00;99.90;;;;;;4939558;29;20039;-88
2022/10/27 02:54:00;;;;;;;17.38;8.45;;;11.90;99.90;;;;;;4956834;29;20475;-87
2022/10/27 02:56:26;;;;;;;16.88;8.20;;;11.80;99.90;;;;;;4941967;29;20039;-88
2022/10/27 02:58:52;;;;;;;16.70;8.70;;;11.80;99.90;;;;;;4956529;29;20535;-87
2022/10/27 03:01:17;;;;;;;17.10;8.20;;;11.80;99.90;;;;;;4956572;29;20047;-88
2022/10/27 03:03:43;;;;;;;15.35;8.25;;;11.70;99.90;;;;;;4959804;29;20043;-88
2022/10/27 03:06:08;;;;;;;17.75;8.27;;;12.00;99.90;;;;;;4939597;29;20106;-88
2022/10/27 03:08:34;;;;;;;18.85;8.48;;;11.50;99.90;;;;;;4956735;29;20494;-88
2022/10/27 03:11:00;;;;;;;18.67;7.97;;;11.40;99.90;;;;;;4939148;29;20050;-87
2022/10/27 03:13:25;;;;;;;15.57;8.18;;;11.40;99.90;;;;;;4956559;29;20043;-88
2022/10/27 03:15:51;;;;;;;16.58;8.00;;;11.30;99.90;;;;;;4939780;29;20070;-87
2022/10/27 03:18:16;;;;;;;20.42;7.90;;;11.30;99.90;;;;;;4989959;23;20083;-87
2022/10/27 03:20:45;;;;;;;19.35;7.95;;;11.30;99.90;;;;;;4938858;29;20050;-88
2022/10/27 03:23:11;;;;;;;18.95;8.38;;;11.20;99.90;;;;;;4956072;29;20051;-88
2022/10/27 03:25:42;;;;;;;16.52;8.02;;;11.20;99.90;;;;;;4955762;29;20047;-87
2022/10/27 03:28:08;;;;;;;19.67;8.20;;;11.10;99.90;;;;;;4945378;23;20055;-87
2022/10/27 03:30:34;;;;;;;16.92;8.82;;;11.10;99.90;;;;;;4939117;29;20514;-87
2022/10/27 03:33:00;;;;;;;17.77;8.65;;;11.10;99.90;;;;;;4938831;29;20047;-87
2022/10/27 03:35:26;;;;;;;14.43;8.27;;;11.10;99.90;;;;;;4938472;29;20146;-87
2022/10/27 03:37:55;;;;;;;18.17;8.73;;;11.00;99.90;;;;;;4955977;29;20087;-87
2022/10/27 03:40:22;;;;;;;20.90;8.88;;;11.00;99.90;;;;;;4938120;29;20128;-87
2022/10/27 03:42:52;;;;;;;18.15;8.40;;;12.00;99.90;;;;;;4938490;29;20074;-88
2022/10/27 03:45:18;;;;;;;15.90;8.52;;;11.00;99.90;;;;;;4937687;29;20047;-88
2022/10/27 03:47:44;;;;;;;17.52;9.02;;;11.00;99.90;;;;;;4938677;29;20050;-87
2022/10/27 03:50:09;;;;;;;19.75;9.15;;;10.90;99.90;;;;;;4939065;29;20047;-87
2022/10/27 03:52:35;;;;;;;17.83;9.32;;;10.90;99.90;;;;;;4937622;29;20047;-88
2022/10/27 03:55:00;;;;;;;18.73;9.02;;;10.90;99.90;;;;;;4955596;29;20051;-87
2022/10/27 03:57:26;;;;;;;19.85;9.85;;;10.80;99.90;;;;;;4955465;29;20409;-88
2022/10/27 03:59:52;;;;;;;22.77;10.80;;;10.80;99.90;;;;;;4938024;29;20130;-87
2022/10/27 04:02:17;;;;;;;26.35;11.48;;;10.90;99.90;;;;;;4937978;29;20045;-87
2022/10/27 04:04:43;;;;;;;26.13;11.45;;;12.00;99.90;;;;;;4955544;29;20133;-87
2022/10/27 04:07:09;;;;;;;27.55;11.98;;;11.10;99.90;;;;;;4954508;29;20055;-88
2022/10/27 04:09:35;;;;;;;22.65;11.00;;;11.20;99.90;;;;;;4937946;29;20047;-87
2022/10/27 04:12:00;;;;;;;25.17;11.25;;;11.20;99.90;;;;;;4938317;29;20039;-87
2022/10/27 04:14:26;;;;;;;21.92;11.43;;;11.20;99.90;;;;;;4937240;29;20055;-88
2022/10/27 04:16:52;;;;;;;28.27;12.45;;;11.20;99.90;;;;;;4938068;29;20510;-87
2022/10/27 04:19:23;;;;;;;20.85;10.73;;;11.20;99.90;;;;;;4955256;29;20094;-88
2022/10/27 04:21:49;;;;;;;23.63;11.02;;;11.20;99.90;;;;;;4937314;29;20055;-87
2022/10/27 04:24:24;;;;;;;24.40;12.40;;;12.40;99.90;;;;;;4938331;29;20110;-88
2022/10/27 04:26:49;;;;;;;26.25;12.27;;;11.20;99.90;;;;;;4937982;29;20052;-88
2022/10/27 04:29:18;;;;;;;23.52;11.32;;;11.40;99.90;;;;;;4954238;29;20432;-88
2022/10/27 04:31:43;;;;;;;23.73;12.32;;;11.30;99.90;;;;;;4955423;29;20043;-88
2022/10/27 04:34:10;;;;;;;23.38;12.00;;;11.30;99.90;;;;;;4937201;29;20106;-87
2022/10/27 04:36:36;;;;;;;20.63;12.20;;;12.10;99.90;;;;;;4937357;29;20047;-88
2022/10/27 04:39:02;;;;;;;29.98;13.32;;;11.30;99.90;;;;;;4937530;29;20110;-88
2022/10/27 04:41:27;;;;;;;27.52;12.68;;;11.30;99.90;;;;;;4936569;29;20055;-88
2022/10/27 04:43:53;;;;;;;23.20;12.25;;;11.30;99.90;;;;;;4955049;29;20514;-88
2022/10/27 04:46:18;;;;;;;24.17;12.32;;;11.30;99.90;;;;;;4940422;29;20078;-88
2022/10/27 04:48:44;;;;;;;25.98;13.00;;;11.30;99.90;;;;;;4937119;29;20047;-88
2022/10/27 04:51:10;;;;;;;26.17;13.38;;;11.30;99.90;;;;;;4955061;29;20446;-88
2022/10/27 04:53:35;;;;;;;25.48;12.90;;;11.40;99.90;;;;;;4940729;29;20151;-88
2022/10/27 04:56:01;;;;;;;23.60;11.63;;;11.40;99.90;;;;;;4937930;29;20443;-88
2022/10/27 04:58:26;;;;;;;27.98;13.90;;;11.40;99.90;;;;;;4938492;29;20054;-88
2022/10/27 05:00:52;;;;;;;26.10;12.43;;;11.50;99.90;;;;;;4938032;29;20411;-88
2022/10/27 05:03:18;;;;;;;27.30;13.23;;;11.40;99.90;;;;;;4937450;28;20119;-88
2022/10/27 05:05:44;;;;;;;24.42;12.77;;;11.40;99.90;;;;;;4959201;29;20051;-88
2022/10/27 05:08:10;;;;;;;28.02;14.85;;;11.50;99.90;;;;;;4940811;29;20046;-88
2022/10/27 05:10:36;;;;;;;26.45;14.27;;;11.50;99.90;;;;;;4940701;29;20546;-88
2022/10/27 05:13:02;;;;;;;26.42;14.18;;;11.60;99.90;;;;;;4941534;29;20044;-88
2022/10/27 05:15:28;;;;;;;27.98;14.65;;;11.60;99.90;;;;;;4958462;29;20079;-88
2022/10/27 05:17:54;;;;;;;26.25;14.93;;;11.60;99.90;;;;;;4940667;29;20047;-87
2022/10/27 05:20:21;;;;;;;28.98;14.70;;;11.70;99.90;;;;;;4957873;29;20043;-88
2022/10/27 05:22:47;;;;;;;27.48;13.98;;;11.60;99.90;;;;;;4958228;29;20051;-87
2022/10/27 05:25:13;;;;;;;27.40;14.32;;;11.70;99.90;;;;;;4940218;29;20110;-88
2022/10/27 05:27:39;;;;;;;29.08;13.77;;;11.70;99.90;;;;;;4958155;29;20055;-88
2022/10/27 05:30:06;;;;;;;30.48;14.90;;;11.80;99.90;;;;;;4958362;29;20050;-88
2022/10/27 05:32:31;;;;;;;24.52;14.43;;;11.80;99.90;;;;;;4957079;29;20543;-88
2022/10/27 05:34:57;;;;;;;25.50;13.25;;;12.10;99.90;;;;;;4957776;29;20134;-88
2022/10/27 05:37:23;;;;;;;26.65;13.65;;;12.90;99.90;;;;;;4957816;29;20039;-88
2022/10/27 05:39:49;;;;;;;25.10;13.95;;;11.90;99.90;;;;;;4939846;29;20047;-88
2022/10/27 05:42:14;;;;;;;26.52;13.60;;;12.00;99.90;;;;;;4940691;29;20039;-88
2022/10/27 05:44:40;;;;;;;28.65;14.25;;;12.10;99.90;;;;;;4939845;29;20427;-88
2022/10/27 05:47:06;;;;;;;32.10;15.00;;;12.10;99.90;;;;;;4940295;29;20051;-88
2022/10/27 05:49:31;;;;;;;26.13;14.05;;;12.10;99.90;;;;;;4940450;29;20189;-88
2022/10/27 05:51:57;;;;;;;24.75;12.50;;;12.10;99.90;;;;;;4938893;29;20051;-88
2022/10/27 05:54:23;;;;;;;23.75;12.48;;;12.10;99.90;;;;;;4940379;29;20047;-88
2022/10/27 05:56:49;;;;;;;28.90;13.27;;;12.50;99.90;;;;;;4940007;29;20078;-88
2022/10/27 05:59:24;;;;;;;24.92;12.75;;;12.10;99.90;;;;;;4970848;23;20059;-88
2022/10/27 06:01:56;;;;;;;22.33;11.70;;;13.00;99.90;;;;;;4940285;29;20059;-88
2022/10/27 06:04:21;;;;;;;23.33;13.35;;;12.10;99.90;;;;;;4940399;29;20070;-88
2022/10/27 06:07:02;;;;;;;27.45;13.25;;;13.00;99.90;;;;;;4939193;29;20498;-88
2022/10/27 06:09:27;;;;;;;25.55;12.52;;;12.50;99.90;;;;;;4957401;29;20122;-88
2022/10/27 06:11:56;;;;;;;21.73;12.27;;;12.10;99.90;;;;;;4939987;29;20131;-88
2022/10/27 06:14:23;;;;;;;24.40;13.00;;;12.50;99.90;;;;;;4956154;29;20448;-88
2022/10/27 06:16:49;;;;;;;26.48;11.95;;;12.20;99.90;;;;;;4938902;29;20039;-88
2022/10/27 06:19:15;;;;;;;23.35;12.48;;;12.20;99.90;;;;;;4939886;29;20043;-88
2022/10/27 06:21:56;;;;;;;21.48;12.25;;;12.20;99.90;;;;;;4938976;29;20133;-88
2022/10/27 06:24:21;;;;;;;22.08;11.60;;;12.20;99.90;;;;;;4956878;29;20055;-88
2022/10/27 06:26:47;;;;;;;23.77;12.35;;;12.20;99.90;;;;;;4956343;29;20039;-89
2022/10/27 06:29:12;;;;;;;22.13;12.25;;;12.20;99.90;;;;;;4939799;29;20494;-88
2022/10/27 06:31:41;;;;;;;23.95;12.65;;;12.20;99.90;;;;;;4940070;29;20039;-88
2022/10/27 06:34:07;;;;;;;23.73;12.80;;;12.80;99.90;;;;;;4941184;29;20051;-88
2022/10/27 06:36:32;;;;;;;21.65;11.88;;;12.20;99.90;;;;;;4939885;29;20106;-91
2022/10/27 06:56:49;;;;;;;25.58;13.07;;;12.40;99.90;;;;;;5466660;23;20062;-88
2022/10/27 07:00:09;;;;;;;23.48;12.48;;;12.40;99.90;;;;;;4955368;29;20183;-87
2022/10/27 07:03:25;;;;;;;23.17;13.05;;;12.30;99.90;;;;;;4955030;29;20051;-89
2022/10/27 07:06:42;;;;;;;21.85;12.18;;;12.60;99.90;;;;;;4935168;29;20510;-86
2022/10/27 07:09:26;;;;;;;25.85;12.93;;;12.60;99.90;;;;;;4928796;28;20513;-86
2022/10/27 07:11:52;;;;;;;;;;;12.60;99.90;;;;;;4936333;29;20046;-88
2022/10/27 07:14:30;;;;;;;22.15;12.68;;;13.40;99.90;;;;;;4955514;29;19922;-87
2022/10/27 07:17:01;;;;;;;24.13;12.93;;;12.70;99.90;;;;;;4954729;28;20039;-86
2022/10/27 07:19:46;;;;;;;21.52;11.45;;;14.10;99.90;;;;;;4937158;29;20046;-87
2022/10/27 07:22:21;;;;;;;22.77;11.60;;;13.40;99.90;;;;;;4937467;29;20055;-87
2022/10/27 07:24:46;;;;;;;21.30;12.20;;;14.00;99.90;;;;;;4955433;29;20135;-87
2022/10/27 07:33:31;;;;;;;22.58;11.70;;;12.90;99.90;;;;;;5054482;23;20063;-86
2022/10/27 07:36:41;;;;;;;19.65;11.13;;;13.00;99.90;;;;;;4923664;29;20467;-86
2022/10/27 07:39:07;;;;;;;22.20;10.73;;;13.00;99.90;;;;;;4929092;23;20060;-86
2022/10/27 07:44:21;;;;;;;20.52;10.85;;;13.10;99.90;;;;;;5535981;23;20055;-86
2022/10/27 07:47:02;;;;;;;20.75;10.60;;;13.20;99.90;;;;;;4938078;29;20507;-86
2022/10/27 07:49:49;;;;;;;16.70;10.35;;;12.30;99.90;;;;;;4922576;29;20059;-86
2022/10/27 07:52:17;;;;;;;18.25;9.93;;;13.60;99.90;;;;;;4917548;29;20048;-86
2022/10/27 07:54:43;;;;;;;20.27;10.68;;;13.30;99.90;;;;;;4935517;29;20538;-87
2022/10/27 07:57:08;;;;;;;18.70;10.27;;;13.30;99.90;;;;;;4917925;29;20074;-86
2022/10/27 07:59:46;;;;;;;18.25;10.25;;;13.40;99.90;;;;;;4918326;29;20130;-86
2022/10/27 08:02:11;;;;;;;18.55;9.93;;;14.20;99.90;;;;;;4918104;29;20086;-87
2022/10/27 08:04:37;;;;;;;20.52;10.07;;;14.50;99.90;;;;;;4918967;29;20416;-87
2022/10/27 08:07:15;;;;;;;17.33;9.35;;;14.50;99.90;;;;;;4918032;29;20051;-87
2022/10/27 08:09:43;;;;;;;17.20;9.27;;;14.10;99.90;;;;;;4934585;29;20467;-87
2022/10/27 08:12:22;;;;;;;18.40;9.80;;;14.50;99.90;;;;;;4937018;29;20129;-87
2022/10/27 08:14:50;;;;;;;15.82;9.75;;;13.70;99.90;;;;;;4936674;29;20055;-84
2022/10/27 08:17:16;;;;;;;19.75;9.63;;;13.70;99.90;;;;;;4934334;29;20043;-84
2022/10/27 08:19:42;;;;;;;17.92;10.02;;;13.70;99.90;;;;;;4952513;29;20372;-86
2022/10/27 08:22:07;;;;;;;18.90;9.40;;;13.80;99.90;;;;;;4935915;23;20048;-86
2022/10/27 08:24:48;;;;;;;16.70;9.23;;;15.00;99.90;;;;;;4884451;29;20456;-86
2022/10/27 08:27:14;;;;;;;16.50;8.60;;;14.10;99.90;;;;;;4911964;29;20048;-86
2022/10/27 08:29:39;;;;;;;20.27;9.15;;;14.10;99.90;;;;;;4883619;29;20119;-86
2022/10/27 08:32:06;;;;;;;16.45;8.77;;;14.10;99.90;;;;;;4899914;29;20493;-86
2022/10/27 08:34:31;;;;;;;15.20;8.07;;;14.20;99.90;;;;;;4950223;23;20056;-86
2022/10/27 08:37:12;;;;;;;15.13;8.60;;;14.20;99.90;;;;;;4915836;29;20079;-86
2022/10/27 08:40:24;;;;;;;14.98;8.57;;;14.20;99.90;;;;;;4914194;29;20133;-86
2022/10/27 08:43:19;;;;;;;15.05;7.95;;;14.20;99.90;;;;;;5000707;23;20055;-86
2022/10/27 08:46:05;;;;;;;16.00;7.47;;;14.20;99.90;;;;;;4916317;29;20060;-86
2022/10/27 08:48:34;;;;;;;14.35;7.75;;;14.20;99.90;;;;;;4915487;29;20535;-86
2022/10/27 08:51:01;;;;;;;15.88;7.95;;;15.20;99.90;;;;;;4914685;29;20048;-86
2022/10/27 08:53:34;;;;;;;15.13;8.02;;;14.20;99.90;;;;;;4914560;29;20062;-86
2022/10/27 08:56:05;;;;;;;17.45;8.30;;;14.70;99.90;;;;;;4898506;29;20084;-86
2022/10/27 08:58:34;;;;;;;15.75;8.18;;;14.10;99.90;;;;;;4913937;29;20079;-86
2022/10/27 09:01:22;;;;;;;15.60;7.60;;;14.10;99.90;;;;;;4898672;29;20139;-86
2022/10/27 09:03:54;;;;;;;16.45;7.90;;;14.20;99.90;;;;;;4913973;29;20044;-86
2022/10/27 09:06:45;;;;;;;20.75;7.72;;;14.10;99.90;;;;;;4898712;29;20051;-86
2022/10/27 09:25:02;;;;;;;13.63;6.60;;;15.00;99.90;;;;;;4916616;29;20051;-88
2022/10/27 09:27:28;;;;;;;11.95;6.22;;;15.70;99.90;;;;;;4898717;29;20051;-86
2022/10/27 09:30:01;;;;;;;12.70;6.40;;;15.20;99.90;;;;;;4897316;29;20044;-86
2022/10/27 09:32:26;;;;;;;13.38;6.07;;;16.40;99.90;;;;;;4927468;23;20142;-88
2022/10/27 09:35:42;;;;;;;10.90;5.88;;;16.50;99.90;;;;;;4951109;23;20137;-88
2022/10/27 09:38:14;;;;;;;11.68;5.82;;;15.50;99.90;;;;;;4952250;29;20063;-88
2022/10/27 09:43:23;;;;;;;12.40;5.93;;;15.80;99.90;;;;;;4966002;23;20052;-88
2022/10/27 09:45:54;;;;;;;12.18;6.00;;;15.80;99.90;;;;;;4952814;29;20082;-91
2022/10/27 09:48:23;;;;;;;11.98;5.30;;;15.90;99.90;;;;;;4935937;29;20054;-89
2022/10/27 09:51:21;;;;;;;11.98;5.57;;;16.00;99.90;;;;;;4937972;29;20480;-88
2022/10/27 09:56:29;;;;;;;12.63;5.20;;;16.30;99.90;;;;;;4952089;23;20052;-89
2022/10/27 10:02:39;;;;;;;12.50;4.68;;;16.20;99.90;;;;;;5177012;23;20053;-88
2022/10/27 10:08:46;;;;;;;10.88;4.38;;;16.60;99.90;;;;;;4899431;29;20051;-86
2022/10/27 10:22:52;;;;;;;10.35;3.70;;;17.10;99.90;;;;;;4936423;29;20054;-88
2022/10/27 10:25:52;;;;;;;9.70;3.40;;;17.30;99.90;;;;;;4907844;29;20055;-87
2022/10/27 10:28:51;;;;;;;9.85;3.60;;;17.30;99.90;;;;;;4921309;29;20058;-88
2022/10/27 10:31:40;;;;;;;10.20;3.30;;;17.40;99.90;;;;;;4938888;29;20399;-87
2022/10/27 10:34:27;;;;;;;10.15;3.42;;;17.50;99.90;;;;;;4962079;23;20051;-88
2022/10/27 10:37:30;;;;;;;11.50;3.22;;;18.10;99.90;;;;;;4956079;29;20043;-88
2022/10/27 10:40:25;;;;;;;10.35;3.58;;;18.40;99.90;;;;;;4956450;29;20483;-88
2022/10/27 10:46:22;;;;;;;9.38;3.20;;;18.20;99.90;;;;;;4940885;29;20059;-90
2022/10/27 10:52:45;;;;;;;10.88;3.17;;;18.50;99.90;;;;;;4915112;29;20149;-86
2022/10/27 10:55:28;;;;;;;10.32;3.40;;;19.30;99.90;;;;;;5033842;23;20050;-88
2022/10/27 11:01:09;;;;;;;11.40;3.30;;;18.50;99.90;;;;;;4938538;29;20487;-90
2022/10/27 11:03:57;;;;;;;9.38;3.25;;;18.40;99.90;;;;;;4934772;29;20085;-91
2022/10/27 11:06:23;;;;;;;8.13;3.15;;;18.40;99.90;;;;;;4929427;29;20047;-91
2022/10/27 11:09:03;;;;;;;12.30;3.00;;;18.50;99.90;;;;;;4926494;29;20102;-88
2022/10/27 11:12:00;;;;;;;9.27;3.03;;;18.50;99.90;;;;;;4925646;29;21462;-87
2022/10/27 11:14:28;;;;;;;8.02;2.78;;;18.50;99.90;;;;;;4918379;29;20523;-88
2022/10/27 11:17:15;;;;;;;9.20;2.67;;;18.00;99.90;;;;;;4940273;29;20039;-88
2022/10/27 11:20:01;;;;;;;10.43;2.75;;;18.40;99.90;;;;;;4945663;29;20128;-88
2022/10/27 11:22:36;;;;;;;9.32;2.50;;;18.50;99.90;;;;;;4920487;29;20801;-89
2022/10/27 11:25:16;;;;;;;11.20;2.80;;;18.60;99.90;;;;;;4934876;29;20058;-88
2022/10/27 11:28:03;;;;;;;10.18;2.72;;;19.50;99.90;;;;;;4955343;28;20126;-88
2022/10/27 11:31:17;;;;;;;9.13;2.47;;;18.60;99.90;;;;;;4995491;23;20058;-88
2022/10/27 11:34:23;;;;;;;8.88;2.45;;;18.70;99.90;;;;;;4919202;29;20047;-88
2022/10/27 11:40:08;;;;;;;9.73;2.70;;;19.30;99.90;;;;;;5857097;23;20055;-89
2022/10/27 11:43:08;;;;;;;11.88;2.75;;;19.20;99.90;;;;;;4912736;29;20094;-89
2022/10/27 11:45:45;;;;;;;9.77;2.80;;;19.20;99.90;;;;;;4900015;29;20108;-88
2022/10/27 11:48:21;;;;;;;9.00;2.22;;;19.10;99.90;;;;;;4909678;29;20074;-88
2022/10/27 11:51:12;;;;;;;11.40;3.33;;;19.20;99.90;;;;;;4925936;29;20043;-89
2022/10/27 11:53:38;;;;;;;7.88;2.55;;;18.90;99.90;;;;;;4909112;29;20060;-89
2022/10/27 11:56:48;;;;;;;7.40;2.38;;;19.40;99.90;;;;;;4926467;29;20062;-88
2022/10/27 11:59:39;;;;;;;9.27;2.58;;;18.90;99.90;;;;;;4866553;29;20049;-89
2022/10/27 12:02:36;;;;;;;8.32;2.60;;;18.90;99.90;;;;;;4888512;29;20056;-88
2022/10/27 12:05:22;;;;;;;10.68;2.47;;;18.90;99.90;;;;;;4908176;29;20174;-86
2022/10/27 12:08:09;;;;;;;9.70;2.60;;;18.80;99.90;;;;;;4910775;23;21135;-86
2022/10/27 12:11:11;;;;;;;8.75;2.40;;;18.80;99.90;;;;;;4917771;29;20090;-85
2022/10/27 12:13:55;;;;;;;11.05;2.55;;;18.90;99.90;;;;;;4914188;29;20147;-85
2022/10/27 12:16:27;;;;;;;9.77;2.60;;;18.80;99.90;;;;;;4934745;29;20043;-86
2022/10/27 12:18:52;;;;;;;10.50;2.40;;;18.80;99.90;;;;;;4934411;29;20039;-86
2022/10/27 12:21:37;;;;;;;11.38;2.38;;;18.70;99.90;;;;;;4917369;29;20044;-86
2022/10/27 12:24:12;;;;;;;10.88;2.63;;;18.70;99.90;;;;;;4916287;29;20099;-86
2022/10/27 12:26:49;;;;;;;11.05;2.45;;;18.80;99.90;;;;;;4917922;29;20054;-86
2022/10/27 12:29:16;;;;;;;7.90;2.60;;;18.90;99.90;;;;;;4917862;29;20411;-87
2022/10/27 12:31:49;;;;;;;10.00;2.55;;;19.80;99.90;;;;;;4934950;29;20036;-85
2022/10/27 12:34:20;;;;;;;12.13;2.70;;;19.20;99.90;;;;;;4934249;29;20043;-85
2022/10/27 12:37:08;;;;;;;7.28;2.42;;;19.20;99.90;;;;;;4935248;29;20048;-85
2022/10/27 12:40:12;;;;;;;7.57;2.38;;;19.60;99.90;;;;;;4917681;29;20094;-86
2022/10/27 12:47:17;;;;;;;7.15;2.30;;;19.30;99.90;;;;;;4934939;29;20090;-85
2022/10/27 12:50:42;;;;;;;7.97;2.23;;;19.50;99.90;;;;;;4918368;29;20055;-85
2022/10/27 12:53:49;;;;;;;8.90;2.40;;;19.70;99.90;;;;;;4880505;29;20052;-85
2022/10/27 12:56:54;;;;;;;8.00;2.30;;;19.80;99.90;;;;;;4936759;29;20059;-86
2022/10/27 13:00:05;;;;;;;7.55;2.30;;;19.70;99.90;;;;;;4917549;29;20091;-86
2022/10/27 13:02:50;;;;;;;8.82;2.50;;;19.70;99.90;;;;;;4954570;23;20066;-86
2022/10/27 13:05:38;;;;;;;7.05;2.10;;;19.60;99.90;;;;;;4936477;29;20046;-86
2022/10/27 13:08:10;;;;;;;11.07;2.60;;;19.60;99.90;;;;;;4936654;29;20054;-86
2022/10/27 13:10:50;;;;;;;7.15;2.30;;;19.60;99.90;;;;;;4936917;29;20047;-86
2022/10/27 13:13:45;;;;;;;11.18;2.42;;;19.60;99.90;;;;;;4936875;29;20396;-86
2022/10/27 13:16:24;;;;;;;7.93;2.17;;;19.70;99.90;;;;;;4953249;29;20491;-86
2022/10/27 13:19:16;;;;;;;8.05;2.13;;;19.70;99.90;;;;;;4936829;29;20082;-86
2022/10/27 13:21:54;;;;;;;8.98;2.28;;;19.90;99.90;;;;;;4936318;29;20065;-86
2022/10/27 13:25:11;;;;;;;8.05;2.00;;;20.20;99.90;;;;;;4953569;28;20499;-86
2022/10/27 13:27:50;;;;;;;8.05;1.90;;;20.10;99.90;;;;;;4908013;29;20103;-86
2022/10/27 13:30:21;;;;;;;6.10;1.90;;;20.30;99.90;;;;;;4918021;29;20051;-87
2022/10/27 13:32:47;;;;;;;6.05;1.95;;;20.10;99.90;;;;;;4919451;29;20556;-87
2022/10/27 13:35:12;;;;;;;8.27;2.00;;;20.20;99.90;;;;;;4945606;29;20130;-86
2022/10/27 13:37:41;;;;;;;8.60;2.10;;;19.80;99.90;;;;;;4928670;29;20076;-86
2022/10/27 13:40:29;;;;;;;7.30;2.08;;;19.90;99.90;;;;;;4932072;29;20039;-88
2022/10/27 13:42:56;;;;;;;8.90;2.00;;;19.70;99.90;;;;;;4939370;29;20063;-86
2022/10/27 13:45:31;;;;;;;6.22;1.80;;;19.90;99.90;;;;;;4939910;29;20518;-88
2022/10/27 13:48:21;;;;;;;9.15;2.10;;;19.70;99.90;;;;;;4940212;29;20058;-88
2022/10/27 13:50:55;;;;;;;7.82;2.00;;;19.40;99.90;;;;;;4991057;23;20500;-87
2022/10/27 13:53:48;;;;;;;9.32;2.22;;;20.00;99.90;;;;;;5001166;23;20129;-87
2022/10/27 13:59:35;;;;;;;6.13;1.90;;;20.00;99.90;;;;;;5099761;23;20139;-88
2022/10/27 14:02:48;;;;;;;9.90;2.17;;;19.90;99.90;;;;;;4902364;29;20043;-83
2022/10/27 14:05:38;;;;;;;9.63;2.20;;;19.80;99.90;;;;;;4960652;23;20051;-85
2022/10/27 14:08:15;;;;;;;9.55;2.22;;;19.70;99.90;;;;;;4939822;29;20467;-85
2022/10/27 14:10:42;;;;;;;7.53;2.10;;;19.50;99.90;;;;;;4940140;29;20062;-85
2022/10/27 14:13:18;;;;;;;8.60;2.20;;;19.80;99.90;;;;;;4955865;29;20047;-85
2022/10/27 14:15:54;;;;;;;7.05;1.90;;;19.40;99.90;;;;;;4957004;29;20145;-85
2022/10/27 14:18:25;;;;;;;10.20;2.53;;;19.20;99.90;;;;;;4938857;29;20043;-85
2022/10/27 14:20:53;;;;;;;7.13;2.00;;;19.30;99.90;;;;;;4950713;29;20046;-85
2022/10/27 14:23:20;;;;;;;7.60;2.25;;;19.00;99.90;;;;;;4946256;29;20040;-85
2022/10/27 14:25:45;;;;;;;7.65;2.05;;;19.00;99.90;;;;;;4927930;29;20495;-87
2022/10/27 14:28:23;;;;;;;7.97;2.00;;;18.90;99.90;;;;;;4946338;29;20085;-85
2022/10/27 14:31:18;;;;;;;6.78;2.10;;;18.90;99.90;;;;;;4945606;29;20126;-84
2022/10/27 14:33:45;;;;;;;7.35;2.10;;;18.80;99.90;;;;;;4953355;23;20134;-85
2022/10/27 14:36:32;;;;;;;7.78;2.10;;;18.80;99.90;;;;;;4946265;29;20377;-87
2022/10/27 14:39:10;;;;;;;7.32;1.98;;;18.80;99.90;;;;;;4901625;29;20401;-86
2022/10/27 14:41:45;;;;;;;8.35;2.25;;;18.70;99.90;;;;;;4901245;29;20048;-86
2022/10/27 14:44:30;;;;;;;9.10;2.35;;;19.70;99.90;;;;;;4900954;29;20044;-86